sensor_id;sensor_type;location;lat;lon;timestamp;temperature;humidity
13211;DHT22;6670;51.53087800;7.23266500;2024-01-30T00:01:41;10.50;99.90
13211;DHT22;6670;51.53087800;7.23266500;2024-01-30T00:04:08;10.50;99.90
13211;DHT22;6670;51.53087800;7.23266500;2024-01-30T00:06:35;10.40;99.90
13211;DHT22;6670;51.53087800;7.23266500;2024-01-30T00:09:04;10.50;99.90
13211;DHT22;6670;51.53087800;7.23266500;2024-01-30T00:11:32;10.40;99.90
13211;DHT22;6670;51.53087800;7.23266500;2024-01-30T00:13:59;10.40;99.90
13211;DHT22;6670;51.53087800;7.23266500;2024-01-30T00:16:27;10.40;99.90
13211;DHT22;6670;51.53087800;7.23266500;2024-01-30T00:18:55;10.40;99.90
13211;DHT22;6670;51.53087800;7.23266500;2024-01-30T00:21:22;10.40;99.90
13211;DHT22;6670;51.53087800;7.23266500;2024-01-30T00:23:50;10.40;99.90
13211;DHT22;6670;51.53087800;7.23266500;2024-01-30T00:26:19;10.30;99.90
13211;DHT22;6670;51.53087800;7.23266500;2024-01-30T00:28:46;10.40;99.90
13211;DHT22;6670;51.53087800;7.23266500;2024-01-30T00:31:14;10.40;99.90
13211;DHT22;6670;51.53087800;7.23266500;2024-01-30T00:33:45;10.30;99.90
13211;DHT22;6670;51.53087800;7.23266500;2024-01-30T00:36:13;10.30;99.90
13211;DHT22;6670;51.53087800;7.23266500;2024-01-30T00:38:41;10.30;99.90
13211;DHT22;6670;51.53087800;7.23266500;2024-01-30T00:41:08;10.30;99.90
13211;DHT22;6670;51.53087800;7.23266500;2024-01-30T00:43:37;10.30;99.90
13211;DHT22;6670;51.53087800;7.23266500;2024-01-30T00:46:05;10.30;99.90
13211;DHT22;6670;51.53087800;7.23266500;2024-01-30T00:48:32;10.30;99.90
13211;DHT22;6670;51.53087800;7.23266500;2024-01-30T00:51:00;10.30;99.90
13211;DHT22;6670;51.53087800;7.23266500;2024-01-30T00:53:27;10.30;99.90
13211;DHT22;6670;51.53087800;7.23266500;2024-01-30T00:55:54;10.30;99.90
13211;DHT22;6670;51.53087800;7.23266500;2024-01-30T00:58:22;10.30;99.90
13211;DHT22;6670;51.53087800;7.23266500;2024-01-30T01:00:50;10.30;99.90
13211;DHT22;6670;51.53087800;7.23266500;2024-01-30T01:03:18;10.30;99.90
13211;DHT22;6670;51.53087800;7.23266500;2024-01-30T01:05:45;10.30;99.90
13211;DHT22;6670;51.53087800;7.23266500;2024-01-30T01:08:13;10.30;99.90
13211;DHT22;6670;51.53087800;7.23266500;2024-01-30T01:10:41;10.30;99.90
13211;DHT22;6670;51.53087800;7.23266500;2024-01-30T01:13:08;10.40;99.90
13211;DHT22;6670;51.53087800;7.23266500;2024-01-30T01:15:36;10.40;99.90
13211;DHT22;6670;51.53087800;7.23266500;2024-01-30T01:18:05;10.40;99.90
13211;DHT22;6670;51.53087800;7.23266500;2024-01-30T01:20:32;10.40;99.90
13211;DHT22;6670;51.53087800;7.23266500;2024-01-30T01:23:00;10.40;99.90
13211;DHT22;6670;51.53087800;7.23266500;2024-01-30T01:25:27;10.40;99.90
13211;DHT22;6670;51.53087800;7.23266500;2024-01-30T01:27:55;10.40;99.90
13211;DHT22;6670;51.53087800;7.23266500;2024-01-30T01:30:23;10.40;99.90
13211;DHT22;6670;51.53087800;7.23266500;2024-01-30T01:32:52;10.40;99.90
13211;DHT22;6670;51.53087800;7.23266500;2024-01-30T01:35:24;10.40;99.90
13211;DHT22;6670;51.53087800;7.23266500;2024-01-30T01:37:52;10.40;99.90
13211;DHT22;6670;51.53087800;7.23266500;2024-01-30T01:40:22;10.30;99.90
13211;DHT22;6670;51.53087800;7.23266500;2024-01-30T01:42:50;10.40;99.90
13211;DHT22;6670;51.53087800;7.23266500;2024-01-30T01:45:18;10.40;99.90
13211;DHT22;6670;51.53087800;7.23266500;2024-01-30T01:47:47;10.40;99.90
13211;DHT22;6670;51.53087800;7.23266500;2024-01-30T01:50:16;10.30;99.90
13211;DHT22;6670;51.53087800;7.23266500;2024-01-30T01:52:47;10.30;99.90
13211;DHT22;6670;51.53087800;7.23266500;2024-01-30T01:55:16;10.30;99.90
13211;DHT22;6670;51.53087800;7.23266500;2024-01-30T01:57:44;10.30;99.90
13211;DHT22;6670;51.53087800;7.23266500;2024-01-30T02:00:13;10.30;99.90
13211;DHT22;6670;51.53087800;7.23266500;2024-01-30T02:02:43;10.30;99.90
13211;DHT22;6670;51.53087800;7.23266500;2024-01-30T02:05:12;10.30;99.90
13211;DHT22;6670;51.53087800;7.23266500;2024-01-30T02:07:40;10.20;99.90
13211;DHT22;6670;51.53087800;7.23266500;2024-01-30T02:10:09;10.20;99.90
13211;DHT22;6670;51.53087800;7.23266500;2024-01-30T02:12:37;10.20;99.90
13211;DHT22;6670;51.53087800;7.23266500;2024-01-30T02:15:05;10.20;99.90
13211;DHT22;6670;51.53087800;7.23266500;2024-01-30T02:17:34;10.20;99.90
13211;DHT22;6670;51.53087800;7.23266500;2024-01-30T02:20:01;10.30;99.90
13211;DHT22;6670;51.53087800;7.23266500;2024-01-30T02:22:34;10.20;99.90
13211;DHT22;6670;51.53087800;7.23266500;2024-01-30T02:25:02;10.20;99.90
13211;DHT22;6670;51.53087800;7.23266500;2024-01-30T02:27:29;10.20;99.90
13211;DHT22;6670;51.53087800;7.23266500;2024-01-30T02:29:58;10.20;99.90
13211;DHT22;6670;51.53087800;7.23266500;2024-01-30T02:32:26;10.30;99.90
13211;DHT22;6670;51.53087800;7.23266500;2024-01-30T02:34:53;10.30;99.90
13211;DHT22;6670;51.53087800;7.23266500;2024-01-30T02:37:21;10.30;99.90
13211;DHT22;6670;51.53087800;7.23266500;2024-01-30T02:39:50;10.20;99.90
13211;DHT22;6670;51.53087800;7.23266500;2024-01-30T02:42:17;10.30;99.90
13211;DHT22;6670;51.53087800;7.23266500;2024-01-30T02:44:44;10.20;99.90
13211;DHT22;6670;51.53087800;7.23266500;2024-01-30T02:47:12;10.20;99.90
13211;DHT22;6670;51.53087800;7.23266500;2024-01-30T02:49:39;10.20;99.90
13211;DHT22;6670;51.53087800;7.23266500;2024-01-30T02:52:07;10.20;99.90
13211;DHT22;6670;51.53087800;7.23266500;2024-01-30T02:54:34;10.20;99.90
13211;DHT22;6670;51.53087800;7.23266500;2024-01-30T02:57:03;10.20;99.90
13211;DHT22;6670;51.53087800;7.23266500;2024-01-30T02:59:31;10.20;99.90
13211;DHT22;6670;51.53087800;7.23266500;2024-01-30T03:01:59;10.20;99.90
13211;DHT22;6670;51.53087800;7.23266500;2024-01-30T03:04:26;10.20;99.90
13211;DHT22;6670;51.53087800;7.23266500;2024-01-30T03:06:56;10.20;99.90
13211;DHT22;6670;51.53087800;7.23266500;2024-01-30T03:09:23;10.20;99.90
13211;DHT22;6670;51.53087800;7.23266500;2024-01-30T03:11:50;10.20;99.90
13211;DHT22;6670;51.53087800;7.23266500;2024-01-30T03:14:18;10.20;99.90
13211;DHT22;6670;51.53087800;7.23266500;2024-01-30T03:16:46;10.30;99.90
13211;DHT22;6670;51.53087800;7.23266500;2024-01-30T03:19:13;10.30;99.90
13211;DHT22;6670;51.53087800;7.23266500;2024-01-30T03:21:41;10.30;99.90
13211;DHT22;6670;51.53087800;7.23266500;2024-01-30T03:24:08;10.30;99.90
13211;DHT22;6670;51.53087800;7.23266500;2024-01-30T03:26:36;10.30;99.90
13211;DHT22;6670;51.53087800;7.23266500;2024-01-30T03:29:04;10.30;99.90
13211;DHT22;6670;51.53087800;7.23266500;2024-01-30T03:31:33;10.30;99.90
13211;DHT22;6670;51.53087800;7.23266500;2024-01-30T03:34:00;10.30;99.90
13211;DHT22;6670;51.53087800;7.23266500;2024-01-30T03:36:28;10.30;99.90
13211;DHT22;6670;51.53087800;7.23266500;2024-01-30T03:39:06;10.30;99.90
13211;DHT22;6670;51.53087800;7.23266500;2024-01-30T03:41:33;10.30;99.90
13211;DHT22;6670;51.53087800;7.23266500;2024-01-30T03:44:01;10.30;99.90
13211;DHT22;6670;51.53087800;7.23266500;2024-01-30T03:46:28;10.30;99.90
13211;DHT22;6670;51.53087800;7.23266500;2024-01-30T03:48:57;10.30;99.90
13211;DHT22;6670;51.53087800;7.23266500;2024-01-30T03:51:24;10.30;99.90
13211;DHT22;6670;51.53087800;7.23266500;2024-01-30T03:53:52;10.30;99.90
13211;DHT22;6670;51.53087800;7.23266500;2024-01-30T03:56:19;10.30;99.90
13211;DHT22;6670;51.53087800;7.23266500;2024-01-30T03:58:47;10.30;99.90
13211;DHT22;6670;51.53087800;7.23266500;2024-01-30T04:01:14;10.30;99.90
13211;DHT22;6670;51.53087800;7.23266500;2024-01-30T04:03:42;10.30;99.90
13211;DHT22;6670;51.53087800;7.23266500;2024-01-30T04:06:12;10.30;99.90
13211;DHT22;6670;51.53087800;7.23266500;2024-01-30T04:08:41;10.30;99.90
13211;DHT22;6670;51.53087800;7.23266500;2024-01-30T04:11:08;10.30;99.90
13211;DHT22;6670;51.53087800;7.23266500;2024-01-30T04:13:36;10.30;99.90
13211;DHT22;6670;51.53087800;7.23266500;2024-01-30T04:16:04;10.30;99.90
13211;DHT22;6670;51.53087800;7.23266500;2024-01-30T04:18:31;10.30;99.90
13211;DHT22;6670;51.53087800;7.23266500;2024-01-30T04:21:00;10.30;99.90
13211;DHT22;6670;51.53087800;7.23266500;2024-01-30T04:23:28;10.20;99.90
13211;DHT22;6670;51.53087800;7.23266500;2024-01-30T04:25:56;10.20;99.90
13211;DHT22;6670;51.53087800;7.23266500;2024-01-30T04:28:23;10.20;99.90
13211;DHT22;6670;51.53087800;7.23266500;2024-01-30T04:30:51;10.20;99.90
13211;DHT22;6670;51.53087800;7.23266500;2024-01-30T04:33:20;10.20;99.90
13211;DHT22;6670;51.53087800;7.23266500;2024-01-30T04:35:47;10.20;99.90
13211;DHT22;6670;51.53087800;7.23266500;2024-01-30T04:38:15;10.20;99.90
13211;DHT22;6670;51.53087800;7.23266500;2024-01-30T04:40:44;10.20;99.90
13211;DHT22;6670;51.53087800;7.23266500;2024-01-30T04:43:11;10.20;99.90
13211;DHT22;6670;51.53087800;7.23266500;2024-01-30T04:45:39;10.20;99.90
13211;DHT22;6670;51.53087800;7.23266500;2024-01-30T04:48:07;10.30;99.90
13211;DHT22;6670;51.53087800;7.23266500;2024-01-30T04:50:34;10.20;99.90
13211;DHT22;6670;51.53087800;7.23266500;2024-01-30T04:53:02;10.20;99.90
13211;DHT22;6670;51.53087800;7.23266500;2024-01-30T04:55:29;10.20;99.90
13211;DHT22;6670;51.53087800;7.23266500;2024-01-30T04:57:58;10.20;99.90
13211;DHT22;6670;51.53087800;7.23266500;2024-01-30T05:00:26;10.20;99.90
13211;DHT22;6670;51.53087800;7.23266500;2024-01-30T05:02:55;10.20;99.90
13211;DHT22;6670;51.53087800;7.23266500;2024-01-30T05:05:22;10.20;99.90
13211;DHT22;6670;51.53087800;7.23266500;2024-01-30T05:07:50;10.30;99.90
13211;DHT22;6670;51.53087800;7.23266500;2024-01-30T05:10:17;10.20;99.90
13211;DHT22;6670;51.53087800;7.23266500;2024-01-30T05:12:45;10.20;99.90
13211;DHT22;6670;51.53087800;7.23266500;2024-01-30T05:15:14;10.30;99.90
13211;DHT22;6670;51.53087800;7.23266500;2024-01-30T05:17:41;10.20;99.90
13211;DHT22;6670;51.53087800;7.23266500;2024-01-30T05:20:10;10.20;99.90
13211;DHT22;6670;51.53087800;7.23266500;2024-01-30T05:22:38;10.20;99.90
13211;DHT22;6670;51.53087800;7.23266500;2024-01-30T05:25:11;10.20;99.90
13211;DHT22;6670;51.53087800;7.23266500;2024-01-30T05:27:39;10.10;99.90
13211;DHT22;6670;51.53087800;7.23266500;2024-01-30T05:30:07;10.10;99.90
13211;DHT22;6670;51.53087800;7.23266500;2024-01-30T05:32:36;10.10;99.90
13211;DHT22;6670;51.53087800;7.23266500;2024-01-30T05:35:04;10.10;99.90
13211;DHT22;6670;51.53087800;7.23266500;2024-01-30T05:37:31;10.10;99.90
13211;DHT22;6670;51.53087800;7.23266500;2024-01-30T05:39:59;10.10;99.90
13211;DHT22;6670;51.53087800;7.23266500;2024-01-30T05:42:27;10.10;99.90
13211;DHT22;6670;51.53087800;7.23266500;2024-01-30T05:44:54;10.00;99.90
13211;DHT22;6670;51.53087800;7.23266500;2024-01-30T05:47:22;10.00;99.90
13211;DHT22;6670;51.53087800;7.23266500;2024-01-30T05:49:50;10.10;99.90
13211;DHT22;6670;51.53087800;7.23266500;2024-01-30T05:52:18;10.10;99.90
13211;DHT22;6670;51.53087800;7.23266500;2024-01-30T05:54:46;10.10;99.90
13211;DHT22;6670;51.53087800;7.23266500;2024-01-30T05:57:15;10.10;99.90
13211;DHT22;6670;51.53087800;7.23266500;2024-01-30T05:59:44;10.10;99.90
13211;DHT22;6670;51.53087800;7.23266500;2024-01-30T06:02:13;10.10;99.90
13211;DHT22;6670;51.53087800;7.23266500;2024-01-30T06:04:41;10.10;99.90
13211;DHT22;6670;51.53087800;7.23266500;2024-01-30T06:07:10;10.10;99.90
13211;DHT22;6670;51.53087800;7.23266500;2024-01-30T06:09:37;10.10;99.90
13211;DHT22;6670;51.53087800;7.23266500;2024-01-30T06:12:08;10.10;99.90
13211;DHT22;6670;51.53087800;7.23266500;2024-01-30T06:14:37;10.10;99.90
13211;DHT22;6670;51.53087800;7.23266500;2024-01-30T06:17:05;10.10;99.90
13211;DHT22;6670;51.53087800;7.23266500;2024-01-30T06:19:33;10.10;99.90
13211;DHT22;6670;51.53087800;7.23266500;2024-01-30T06:22:00;10.10;99.90
13211;DHT22;6670;51.53087800;7.23266500;2024-01-30T06:24:32;10.10;99.90
13211;DHT22;6670;51.53087800;7.23266500;2024-01-30T06:27:00;10.10;99.90
13211;DHT22;6670;51.53087800;7.23266500;2024-01-30T06:29:28;10.10;99.90
13211;DHT22;6670;51.53087800;7.23266500;2024-01-30T06:31:55;10.10;99.90
13211;DHT22;6670;51.53087800;7.23266500;2024-01-30T06:34:23;10.10;99.90
13211;DHT22;6670;51.53087800;7.23266500;2024-01-30T06:36:52;11.40;99.90
13211;DHT22;6670;51.53087800;7.23266500;2024-01-30T06:39:19;11.70;99.90
13211;DHT22;6670;51.53087800;7.23266500;2024-01-30T06:41:48;10.90;99.90
13211;DHT22;6670;51.53087800;7.23266500;2024-01-30T06:44:16;10.50;99.90
13211;DHT22;6670;51.53087800;7.23266500;2024-01-30T06:47:01;10.30;99.90
13211;DHT22;6670;51.53087800;7.23266500;2024-01-30T06:49:29;10.30;99.90
13211;DHT22;6670;51.53087800;7.23266500;2024-01-30T06:51:56;10.20;99.90
13211;DHT22;6670;51.53087800;7.23266500;2024-01-30T06:54:24;10.20;99.90
13211;DHT22;6670;51.53087800;7.23266500;2024-01-30T06:56:53;10.20;99.90
13211;DHT22;6670;51.53087800;7.23266500;2024-01-30T06:59:23;10.20;99.90
13211;DHT22;6670;51.53087800;7.23266500;2024-01-30T07:02:34;10.20;99.90
13211;DHT22;6670;51.53087800;7.23266500;2024-01-30T07:08:18;10.20;99.90
13211;DHT22;6670;51.53087800;7.23266500;2024-01-30T07:10:58;10.20;99.90
13211;DHT22;6670;51.53087800;7.23266500;2024-01-30T07:13:51;10.20;99.90
13211;DHT22;6670;51.53087800;7.23266500;2024-01-30T07:16:42;10.20;99.90
13211;DHT22;6670;51.53087800;7.23266500;2024-01-30T07:19:26;10.20;99.90
13211;DHT22;6670;51.53087800;7.23266500;2024-01-30T07:21:54;10.20;99.90
13211;DHT22;6670;51.53087800;7.23266500;2024-01-30T07:24:24;10.30;99.90
13211;DHT22;6670;51.53087800;7.23266500;2024-01-30T07:26:52;10.30;99.90
13211;DHT22;6670;51.53087800;7.23266500;2024-01-30T07:29:21;10.30;99.90
13211;DHT22;6670;51.53087800;7.23266500;2024-01-30T07:31:49;10.40;99.90
13211;DHT22;6670;51.53087800;7.23266500;2024-01-30T07:34:16;10.90;99.90
13211;DHT22;6670;51.53087800;7.23266500;2024-01-30T07:36:44;10.60;99.90
13211;DHT22;6670;51.53087800;7.23266500;2024-01-30T07:39:13;10.40;99.90
13211;DHT22;6670;51.53087800;7.23266500;2024-01-30T07:41:40;10.40;99.90
13211;DHT22;6670;51.53087800;7.23266500;2024-01-30T07:44:08;10.40;99.90
13211;DHT22;6670;51.53087800;7.23266500;2024-01-30T07:46:37;10.40;99.90
13211;DHT22;6670;51.53087800;7.23266500;2024-01-30T07:49:04;10.40;99.90
13211;DHT22;6670;51.53087800;7.23266500;2024-01-30T07:51:32;10.40;99.90
13211;DHT22;6670;51.53087800;7.23266500;2024-01-30T07:53:59;10.40;99.90
13211;DHT22;6670;51.53087800;7.23266500;2024-01-30T07:56:27;10.40;99.90
13211;DHT22;6670;51.53087800;7.23266500;2024-01-30T07:58:54;10.40;99.90
13211;DHT22;6670;51.53087800;7.23266500;2024-01-30T08:01:30;10.50;99.90
13211;DHT22;6670;51.53087800;7.23266500;2024-01-30T08:03:59;10.50;99.90
13211;DHT22;6670;51.53087800;7.23266500;2024-01-30T08:06:27;10.50;99.90
13211;DHT22;6670;51.53087800;7.23266500;2024-01-30T08:08:55;10.50;99.90
13211;DHT22;6670;51.53087800;7.23266500;2024-01-30T08:11:23;10.60;99.90
13211;DHT22;6670;51.53087800;7.23266500;2024-01-30T08:13:52;10.60;99.90
13211;DHT22;6670;51.53087800;7.23266500;2024-01-30T08:16:19;10.60;99.90
13211;DHT22;6670;51.53087800;7.23266500;2024-01-30T08:18:55;10.70;99.90
13211;DHT22;6670;51.53087800;7.23266500;2024-01-30T08:21:25;10.60;99.90
13211;DHT22;6670;51.53087800;7.23266500;2024-01-30T08:23:52;10.70;99.90
13211;DHT22;6670;51.53087800;7.23266500;2024-01-30T08:26:25;10.70;99.90
13211;DHT22;6670;51.53087800;7.23266500;2024-01-30T08:28:52;10.70;99.90
13211;DHT22;6670;51.53087800;7.23266500;2024-01-30T08:31:20;10.70;99.90
13211;DHT22;6670;51.53087800;7.23266500;2024-01-30T08:33:48;10.70;99.90
13211;DHT22;6670;51.53087800;7.23266500;2024-01-30T08:36:17;10.70;99.90
13211;DHT22;6670;51.53087800;7.23266500;2024-01-30T08:38:46;10.70;99.90
13211;DHT22;6670;51.53087800;7.23266500;2024-01-30T08:41:14;10.80;99.90
13211;DHT22;6670;51.53087800;7.23266500;2024-01-30T08:43:41;10.80;99.90
13211;DHT22;6670;51.53087800;7.23266500;2024-01-30T08:46:10;10.90;99.90
13211;DHT22;6670;51.53087800;7.23266500;2024-01-30T08:48:38;10.90;99.90
13211;DHT22;6670;51.53087800;7.23266500;2024-01-30T08:51:06;11.00;99.90
13211;DHT22;6670;51.53087800;7.23266500;2024-01-30T08:53:35;11.00;99.90
13211;DHT22;6670;51.53087800;7.23266500;2024-01-30T08:56:08;11.00;99.90
13211;DHT22;6670;51.53087800;7.23266500;2024-01-30T08:58:49;11.00;99.90
13211;DHT22;6670;51.53087800;7.23266500;2024-01-30T09:01:27;11.10;99.90
13211;DHT22;6670;51.53087800;7.23266500;2024-01-30T09:03:54;11.10;99.90
13211;DHT22;6670;51.53087800;7.23266500;2024-01-30T09:06:21;11.10;99.90
13211;DHT22;6670;51.53087800;7.23266500;2024-01-30T09:08:50;11.20;99.90
13211;DHT22;6670;51.53087800;7.23266500;2024-01-30T09:11:31;11.20;99.90
13211;DHT22;6670;51.53087800;7.23266500;2024-01-30T09:13:59;11.30;99.90
13211;DHT22;6670;51.53087800;7.23266500;2024-01-30T09:16:28;11.30;99.90
13211;DHT22;6670;51.53087800;7.23266500;2024-01-30T09:18:57;11.40;99.90
13211;DHT22;6670;51.53087800;7.23266500;2024-01-30T09:21:24;11.40;99.90
13211;DHT22;6670;51.53087800;7.23266500;2024-01-30T09:23:54;11.50;99.90
13211;DHT22;6670;51.53087800;7.23266500;2024-01-30T09:26:22;11.50;99.90
13211;DHT22;6670;51.53087800;7.23266500;2024-01-30T09:28:51;11.50;99.90
13211;DHT22;6670;51.53087800;7.23266500;2024-01-30T09:31:21;11.50;99.90
13211;DHT22;6670;51.53087800;7.23266500;2024-01-30T09:33:48;11.60;99.90
13211;DHT22;6670;51.53087800;7.23266500;2024-01-30T09:36:17;11.60;99.90
13211;DHT22;6670;51.53087800;7.23266500;2024-01-30T09:38:59;11.60;99.90
13211;DHT22;6670;51.53087800;7.23266500;2024-01-30T09:41:27;11.60;99.90
13211;DHT22;6670;51.53087800;7.23266500;2024-01-30T09:43:57;11.70;99.90
13211;DHT22;6670;51.53087800;7.23266500;2024-01-30T09:46:28;11.70;99.90
13211;DHT22;6670;51.53087800;7.23266500;2024-01-30T09:49:11;11.70;99.90
13211;DHT22;6670;51.53087800;7.23266500;2024-01-30T09:51:39;11.60;99.90
13211;DHT22;6670;51.53087800;7.23266500;2024-01-30T09:54:08;11.70;99.90
13211;DHT22;6670;51.53087800;7.23266500;2024-01-30T09:56:37;11.80;99.90
13211;DHT22;6670;51.53087800;7.23266500;2024-01-30T09:59:09;11.80;99.90
13211;DHT22;6670;51.53087800;7.23266500;2024-01-30T10:01:40;11.80;99.90
13211;DHT22;6670;51.53087800;7.23266500;2024-01-30T10:04:08;11.80;99.90
13211;DHT22;6670;51.53087800;7.23266500;2024-01-30T10:06:42;11.90;99.90
13211;DHT22;6670;51.53087800;7.23266500;2024-01-30T10:09:09;12.00;99.90
13211;DHT22;6670;51.53087800;7.23266500;2024-01-30T10:11:37;12.10;99.90
13211;DHT22;6670;51.53087800;7.23266500;2024-01-30T10:14:04;12.10;99.90
13211;DHT22;6670;51.53087800;7.23266500;2024-01-30T10:16:35;12.10;99.90
13211;DHT22;6670;51.53087800;7.23266500;2024-01-30T10:19:03;12.20;99.90
13211;DHT22;6670;51.53087800;7.23266500;2024-01-30T10:21:30;12.20;99.90
13211;DHT22;6670;51.53087800;7.23266500;2024-01-30T10:23:58;12.30;99.90
13211;DHT22;6670;51.53087800;7.23266500;2024-01-30T10:26:25;12.50;99.90
13211;DHT22;6670;51.53087800;7.23266500;2024-01-30T10:28:55;12.60;99.90
13211;DHT22;6670;51.53087800;7.23266500;2024-01-30T10:31:26;12.60;99.90
13211;DHT22;6670;51.53087800;7.23266500;2024-01-30T10:33:55;12.70;99.90
13211;DHT22;6670;51.53087800;7.23266500;2024-01-30T10:36:28;12.90;99.90
13211;DHT22;6670;51.53087800;7.23266500;2024-01-30T10:39:01;12.80;99.90
13211;DHT22;6670;51.53087800;7.23266500;2024-01-30T10:41:31;12.80;99.90
13211;DHT22;6670;51.53087800;7.23266500;2024-01-30T10:44:07;12.70;99.90
13211;DHT22;6670;51.53087800;7.23266500;2024-01-30T10:46:37;12.70;99.90
13211;DHT22;6670;51.53087800;7.23266500;2024-01-30T10:49:06;12.80;99.90
13211;DHT22;6670;51.53087800;7.23266500;2024-01-30T10:51:34;12.70;99.90
13211;DHT22;6670;51.53087800;7.23266500;2024-01-30T10:54:05;12.80;99.90
13211;DHT22;6670;51.53087800;7.23266500;2024-01-30T10:56:34;13.00;99.90
13211;DHT22;6670;51.53087800;7.23266500;2024-01-30T10:59:02;13.10;99.90
13211;DHT22;6670;51.53087800;7.23266500;2024-01-30T11:01:30;13.20;99.90
13211;DHT22;6670;51.53087800;7.23266500;2024-01-30T11:04:01;13.30;99.90
13211;DHT22;6670;51.53087800;7.23266500;2024-01-30T11:06:30;13.40;99.90
13211;DHT22;6670;51.53087800;7.23266500;2024-01-30T11:09:01;13.20;99.90
13211;DHT22;6670;51.53087800;7.23266500;2024-01-30T11:11:30;13.20;99.90
13211;DHT22;6670;51.53087800;7.23266500;2024-01-30T11:14:01;13.10;99.90
13211;DHT22;6670;51.53087800;7.23266500;2024-01-30T11:16:32;13.10;99.90
13211;DHT22;6670;51.53087800;7.23266500;2024-01-30T11:19:05;13.00;99.90
13211;DHT22;6670;51.53087800;7.23266500;2024-01-30T11:21:42;13.00;99.90
13211;DHT22;6670;51.53087800;7.23266500;2024-01-30T11:24:09;13.00;99.90
13211;DHT22;6670;51.53087800;7.23266500;2024-01-30T11:26:38;12.90;99.90
13211;DHT22;6670;51.53087800;7.23266500;2024-01-30T11:29:08;12.90;99.90
13211;DHT22;6670;51.53087800;7.23266500;2024-01-30T11:31:35;13.00;99.90
13211;DHT22;6670;51.53087800;7.23266500;2024-01-30T11:34:03;12.90;99.90
13211;DHT22;6670;51.53087800;7.23266500;2024-01-30T11:36:32;13.00;99.90
13211;DHT22;6670;51.53087800;7.23266500;2024-01-30T11:39:05;12.90;99.90
13211;DHT22;6670;51.53087800;7.23266500;2024-01-30T11:41:34;12.90;99.90
13211;DHT22;6670;51.53087800;7.23266500;2024-01-30T11:44:04;12.90;99.90
13211;DHT22;6670;51.53087800;7.23266500;2024-01-30T11:46:32;12.80;99.90
13211;DHT22;6670;51.53087800;7.23266500;2024-01-30T11:49:01;12.70;99.90
13211;DHT22;6670;51.53087800;7.23266500;2024-01-30T11:51:30;12.70;99.90
13211;DHT22;6670;51.53087800;7.23266500;2024-01-30T11:53:58;12.80;99.90
13211;DHT22;6670;51.53087800;7.23266500;2024-01-30T11:56:27;12.70;99.90
13211;DHT22;6670;51.53087800;7.23266500;2024-01-30T11:58:54;12.70;99.90
13211;DHT22;6670;51.53087800;7.23266500;2024-01-30T12:01:22;12.70;99.90
13211;DHT22;6670;51.53087800;7.23266500;2024-01-30T12:03:49;12.70;99.90
13211;DHT22;6670;51.53087800;7.23266500;2024-01-30T12:06:20;12.70;99.90
13211;DHT22;6670;51.53087800;7.23266500;2024-01-30T12:08:57;12.70;99.90
13211;DHT22;6670;51.53087800;7.23266500;2024-01-30T12:11:28;12.70;99.90
13211;DHT22;6670;51.53087800;7.23266500;2024-01-30T12:13:56;12.70;99.90
13211;DHT22;6670;51.53087800;7.23266500;2024-01-30T12:16:24;12.70;99.90
13211;DHT22;6670;51.53087800;7.23266500;2024-01-30T12:18:59;12.60;99.90
13211;DHT22;6670;51.53087800;7.23266500;2024-01-30T12:21:28;12.60;99.90
13211;DHT22;6670;51.53087800;7.23266500;2024-01-30T12:23:56;12.60;99.90
13211;DHT22;6670;51.53087800;7.23266500;2024-01-30T12:26:24;12.60;99.90
13211;DHT22;6670;51.53087800;7.23266500;2024-01-30T12:28:55;12.60;99.90
13211;DHT22;6670;51.53087800;7.23266500;2024-01-30T12:31:27;12.60;99.90
13211;DHT22;6670;51.53087800;7.23266500;2024-01-30T12:33:59;12.60;99.90
13211;DHT22;6670;51.53087800;7.23266500;2024-01-30T12:36:28;12.60;99.90
13211;DHT22;6670;51.53087800;7.23266500;2024-01-30T12:38:57;12.60;99.90
13211;DHT22;6670;51.53087800;7.23266500;2024-01-30T12:41:24;12.60;99.90
13211;DHT22;6670;51.53087800;7.23266500;2024-01-30T12:43:58;12.60;99.90
13211;DHT22;6670;51.53087800;7.23266500;2024-01-30T12:46:27;12.60;99.90
13211;DHT22;6670;51.53087800;7.23266500;2024-01-30T12:48:55;12.60;99.90
13211;DHT22;6670;51.53087800;7.23266500;2024-01-30T12:51:23;12.60;99.90
13211;DHT22;6670;51.53087800;7.23266500;2024-01-30T12:53:50;12.60;99.90
13211;DHT22;6670;51.53087800;7.23266500;2024-01-30T12:56:18;12.60;99.90
13211;DHT22;6670;51.53087800;7.23266500;2024-01-30T12:58:45;12.60;99.90
13211;DHT22;6670;51.53087800;7.23266500;2024-01-30T13:01:14;12.50;99.90
13211;DHT22;6670;51.53087800;7.23266500;2024-01-30T13:03:41;12.50;99.90
13211;DHT22;6670;51.53087800;7.23266500;2024-01-30T13:06:09;12.50;99.90
13211;DHT22;6670;51.53087800;7.23266500;2024-01-30T13:08:36;12.60;99.90
13211;DHT22;6670;51.53087800;7.23266500;2024-01-30T13:11:04;12.60;99.90
13211;DHT22;6670;51.53087800;7.23266500;2024-01-30T13:13:32;12.60;99.90
13211;DHT22;6670;51.53087800;7.23266500;2024-01-30T13:15:59;12.50;99.90
13211;DHT22;6670;51.53087800;7.23266500;2024-01-30T13:18:28;12.50;99.90
13211;DHT22;6670;51.53087800;7.23266500;2024-01-30T13:20:55;12.50;99.90
13211;DHT22;6670;51.53087800;7.23266500;2024-01-30T13:23:23;12.50;99.90
13211;DHT22;6670;51.53087800;7.23266500;2024-01-30T13:25:51;12.50;99.90
13211;DHT22;6670;51.53087800;7.23266500;2024-01-30T13:28:20;12.50;99.90
13211;DHT22;6670;51.53087800;7.23266500;2024-01-30T13:30:47;12.40;99.90
13211;DHT22;6670;51.53087800;7.23266500;2024-01-30T13:33:15;12.50;99.90
13211;DHT22;6670;51.53087800;7.23266500;2024-01-30T13:35:44;12.40;99.90
13211;DHT22;6670;51.53087800;7.23266500;2024-01-30T13:38:17;12.40;99.90
13211;DHT22;6670;51.53087800;7.23266500;2024-01-30T13:40:45;12.40;99.90
13211;DHT22;6670;51.53087800;7.23266500;2024-01-30T13:43:17;12.40;99.90
13211;DHT22;6670;51.53087800;7.23266500;2024-01-30T13:45:45;12.40;99.90
13211;DHT22;6670;51.53087800;7.23266500;2024-01-30T13:48:13;12.40;99.90